Cokato, MN (55321)

4:22 AM CST on February 11, 2016 (GMT -0600)
APRSWXNET | | Change Station
CLOSE
Current Station
Personal Weather Station
Location: Howard Lake, MN
Elevation: 1023 ft
Nearby Weather Stations

Elev 1023 ft 45.06 °N, 94.09 °W | Updated 23 minutes ago

Partly Cloudy
Partly Cloudy
1 °F
Feels Like 1 °F
N
0
Wind Variable Wind from North
Gusts 0.0 mph

Today
High -- | Low -- °F
--% Chance of Precip.
Yesterday
High -- | Low -- °F
Precip. -- in
Pressure 30.30 in
Visibility 10.0 miles
Clouds Clear
Windchill 1 °F
Dew Point -3 °F
Humidity 81%
Rainfall in
Snow Depth Not available.
7:24 AM 5:38 PM
Waxing Crescent, 11% visible
METAR KMGG 111017Z AUTO 00000KT 10SM CLR M18/M20 A3030 RMK AO2 T11811200
Pressure 30.30 in
Visibility 10.0 miles
Clouds Clear
Windchill 1 °F
Dew Point -3 °F
Humidity 81%
Rainfall in
Snow Depth Not available.
7:24 AM 5:38 PM
Waxing Crescent, 11% visible
METAR KMGG 111017Z AUTO 00000KT 10SM CLR M18/M20 A3030 RMK AO2 T11811200

10-Day Weather Forecast

Almanac

Astronomy

Feb. 11, 2016 Rise Set
Actual Time
Civil Twilight
Nautical Twilight
Astronomical Twilight
Moon
Length of Visible Light
Length of Day
Tomorrow will be .
, % of the Moon is Illuminated

Today's Extremes

State Highs State Lows

Community

WunderPhotos

Upload Photos

1,892,030 photos uploaded!

WunderBlog® & News

Nearby

Air Quality

  Air Quality AQ Index Pollutant
Not available.

Snow Depth

Station Depth Elevation

Earthquake Activity

City Distance Mag. Time & Date
Minimum magnitude displayed is 2.5.

Coastal Water Temperatures

Place Temperature

Stations

Nearby Weather Stations

Station Location Temp. Windchill Dew Point Humidity Wind Precip. Elev Updated Type
                   

Watches & Warnings

There are currently no watches in effect.